Time,TemperatureF,DewpointF,PressureIn,WindDirection,WindDirectionDegrees,WindSpeedMPH,WindSpeedGustMPH,Humidity,HourlyPrecipIn,Conditions,Clouds,dailyrainin,SoftwareType,DateUTC
2013-05-27 00:01:00,56.0,46.0,29.81,NW,326,6.0,8.0,69,0.00,,,0.00,,2013-05-27 06:01:00,
2013-05-27 00:11:00,56.0,46.0,29.81,NW,326,6.0,8.0,69,0.00,,,0.00,,2013-05-27 06:11:00,
2013-05-27 00:21:00,58.0,47.0,29.82,NW,320,8.0,11.0,66,0.00,,,0.00,,2013-05-27 06:21:00,
2013-05-27 00:31:00,56.0,46.0,29.82,North,355,0.0,6.0,68,0.00,,,0.00,,2013-05-27 06:31:00,
2013-05-27 00:41:00,56.0,46.0,29.82,North,355,0.0,6.0,68,0.00,,,0.00,,2013-05-27 06:41:00,
2013-05-27 00:52:00,57.0,48.0,29.83,WNW,288,20.0,33.0,72,0.00,,,0.00,,2013-05-27 06:52:00,
2013-05-27 01:01:00,57.0,49.0,29.84,NW,304,26.0,35.0,74,0.00,,,0.00,,2013-05-27 07:01:00,
2013-05-27 01:11:00,55.0,48.0,29.85,WNW,298,24.0,34.0,78,0.00,,,0.00,,2013-05-27 07:11:00,
2013-05-27 01:21:00,55.0,48.0,29.85,WNW,298,24.0,34.0,78,0.00,,,0.00,,2013-05-27 07:21:00,
2013-05-27 01:31:00,55.0,49.0,29.86,NW,306,24.0,32.0,79,0.00,,,0.00,,2013-05-27 07:31:00,
2013-05-27 01:41:00,55.0,49.0,29.86,NW,306,24.0,32.0,79,0.00,,,0.00,,2013-05-27 07:41:00,
2013-05-27 01:52:00,55.0,48.0,29.86,NNW,329,24.0,32.0,77,0.00,,,0.00,,2013-05-27 07:52:00,
2013-05-27 02:01:00,55.0,47.0,29.86,WNW,298,23.0,28.0,73,0.00,,,0.00,,2013-05-27 08:01:00,
2013-05-27 02:11:00,55.0,47.0,29.86,WNW,298,23.0,28.0,73,0.00,,,0.00,,2013-05-27 08:11:00,
2013-05-27 02:21:00,55.0,45.0,29.87,NW,310,21.0,28.0,70,0.00,,,0.00,,2013-05-27 08:21:00,
2013-05-27 02:32:00,54.0,44.0,29.87,WNW,303,17.0,26.0,70,0.00,,,0.00,,2013-05-27 08:32:00,
2013-05-27 02:41:00,54.0,44.0,29.87,WNW,303,17.0,26.0,70,0.00,,,0.00,,2013-05-27 08:41:00,
2013-05-27 02:52:00,54.0,45.0,29.86,NW,325,20.0,26.0,71,0.00,,,0.00,,2013-05-27 08:52:00,
2013-05-27 03:02:00,53.0,45.0,29.85,NW,304,15.0,20.0,74,0.00,,,0.00,,2013-05-27 09:02:00,
2013-05-27 03:11:00,53.0,45.0,29.85,NW,304,15.0,20.0,74,0.00,,,0.00,,2013-05-27 09:11:00,
2013-05-27 03:21:00,53.0,47.0,29.85,NW,306,9.0,15.0,80,0.00,,,0.00,,2013-05-27 09:21:00,
2013-05-27 03:33:00,54.0,48.0,29.85,West,269,13.0,18.0,80,0.00,,,0.00,,2013-05-27 09:33:00,
2013-05-27 03:42:00,54.0,48.0,29.85,West,269,13.0,18.0,80,0.00,,,0.00,,2013-05-27 09:42:00,
2013-05-27 03:53:00,55.0,48.0,29.85,West,278,8.0,12.0,77,0.00,,,0.00,,2013-05-27 09:53:00,
2013-05-27 04:02:00,53.0,47.0,29.85,West,263,13.0,18.0,81,0.00,,,0.00,,2013-05-27 10:02:00,
2013-05-27 04:12:00,53.0,47.0,29.85,West,263,13.0,18.0,81,0.00,,,0.00,,2013-05-27 10:12:00,
2013-05-27 04:22:00,53.0,48.0,29.87,West,259,17.0,23.0,83,0.00,,,0.00,,2013-05-27 10:22:00,
2013-05-27 04:32:00,54.0,48.0,29.89,West,259,15.0,22.0,81,0.00,,,0.00,,2013-05-27 10:32:00,
2013-05-27 04:41:00,54.0,48.0,29.89,West,259,15.0,22.0,81,0.00,,,0.00,,2013-05-27 10:41:00,
2013-05-27 04:52:00,54.0,49.0,29.89,WNW,301,12.0,22.0,83,0.00,,,0.00,,2013-05-27 10:52:00,
2013-05-27 05:02:00,53.0,48.0,29.87,NE,49,8.0,11.0,83,0.01,,,0.01,,2013-05-27 11:02:00,
2013-05-27 05:11:00,53.0,48.0,29.87,NE,49,8.0,11.0,83,0.01,,,0.01,,2013-05-27 11:11:00,
2013-05-27 05:21:00,53.0,49.0,29.88,North,360,10.0,12.0,85,0.01,,,0.01,,2013-05-27 11:21:00,
2013-05-27 05:31:00,53.0,49.0,29.88,WNW,295,9.0,10.0,85,0.01,,,0.01,,2013-05-27 11:31:00,
2013-05-27 05:42:00,53.0,49.0,29.88,WNW,295,9.0,10.0,85,0.01,,,0.01,,2013-05-27 11:42:00,
2013-05-27 05:52:00,53.0,49.0,29.87,NNW,333,5.0,8.0,86,0.01,,,0.01,,2013-05-27 11:52:00,
2013-05-27 06:01:00,52.0,48.0,29.88,NW,307,5.0,7.0,87,0.00,,,0.01,,2013-05-27 12:01:00,
2013-05-27 06:11:00,52.0,48.0,29.88,NW,307,5.0,7.0,87,0.00,,,0.01,,2013-05-27 12:11:00,
2013-05-27 06:21:00,52.0,49.0,29.88,NW,321,9.0,12.0,89,0.00,,,0.01,,2013-05-27 12:21:00,
2013-05-27 06:31:00,51.0,48.0,29.88,NW,319,7.0,10.0,91,0.00,,,0.01,,2013-05-27 12:31:00,
2013-05-27 06:42:00,51.0,48.0,29.88,NW,319,7.0,10.0,91,0.00,,,0.01,,2013-05-27 12:42:00,
2013-05-27 06:52:00,50.0,47.0,29.87,NNW,342,8.0,9.0,91,0.00,,,0.01,,2013-05-27 12:52:00,
2013-05-27 07:01:00,50.0,48.0,29.87,NNW,338,7.0,8.0,92,0.00,,,0.01,,2013-05-27 13:01:00,
2013-05-27 07:11:00,50.0,48.0,29.87,NNW,338,7.0,8.0,92,0.00,,,0.01,,2013-05-27 13:11:00,
2013-05-27 07:21:00,50.0,48.0,29.86,NNW,327,7.0,8.0,93,0.00,,,0.01,,2013-05-27 13:21:00,
2013-05-27 07:32:00,50.0,48.0,29.86,North,5,7.0,8.0,93,0.00,,,0.01,,2013-05-27 13:32:00,
2013-05-27 07:41:00,50.0,48.0,29.86,North,5,7.0,8.0,93,0.00,,,0.01,,2013-05-27 13:41:00,
2013-05-27 07:52:00,50.0,48.0,29.86,NNE,13,5.0,7.0,93,0.00,,,0.01,,2013-05-27 13:52:00,
2013-05-27 08:01:00,49.0,47.0,29.86,NNW,346,6.0,8.0,94,0.00,,,0.01,,2013-05-27 14:01:00,
2013-05-27 08:11:00,49.0,47.0,29.86,NNW,346,6.0,8.0,94,0.00,,,0.01,,2013-05-27 14:11:00,
2013-05-27 08:21:00,51.0,49.0,29.86,North,355,4.0,6.0,94,0.00,,,0.01,,2013-05-27 14:21:00,
2013-05-27 08:31:00,53.0,51.0,29.85,North,355,0.0,4.0,94,0.00,,,0.01,,2013-05-27 14:31:00,
2013-05-27 08:41:00,53.0,51.0,29.85,North,355,0.0,4.0,94,0.00,,,0.01,,2013-05-27 14:41:00,
2013-05-27 08:52:00,56.0,52.0,29.85,NE,39,0.0,0.0,85,0.00,,,0.01,,2013-05-27 14:52:00,
2013-05-27 09:01:00,58.0,51.0,29.85,NE,40,0.0,0.0,78,0.00,,,0.01,,2013-05-27 15:01:00,
2013-05-27 09:11:00,59.0,48.0,29.84,ENE,74,1.0,5.0,68,0.00,,,0.01,,2013-05-27 15:11:00,
2013-05-27 09:21:00,59.0,48.0,29.84,ENE,74,1.0,5.0,68,0.00,,,0.01,,2013-05-27 15:21:00,
2013-05-27 09:33:00,60.0,48.0,29.84,ESE,123,3.0,8.0,65,0.00,,,0.01,,2013-05-27 15:33:00,
2013-05-27 09:43:00,60.0,48.0,29.84,ESE,123,3.0,8.0,65,0.00,,,0.01,,2013-05-27 15:43:00,
2013-05-27 09:53:00,60.0,47.0,29.83,ESE,109,2.0,6.0,62,0.00,,,0.01,,2013-05-27 15:53:00,
2013-05-27 10:02:00,61.0,48.0,29.83,SE,127,6.0,10.0,62,0.00,,,0.01,,2013-05-27 16:02:00,
2013-05-27 10:12:00,61.0,48.0,29.83,SE,127,6.0,10.0,62,0.00,,,0.01,,2013-05-27 16:12:00,
2013-05-27 10:22:00,61.0,45.0,29.82,SE,135,1.0,7.0,56,0.00,,,0.01,,2013-05-27 16:22:00,
2013-05-27 10:33:00,61.0,47.0,29.82,ESE,121,3.0,8.0,59,0.00,,,0.01,,2013-05-27 16:33:00,
2013-05-27 10:42:00,61.0,47.0,29.82,ESE,121,3.0,8.0,59,0.00,,,0.01,,2013-05-27 16:42:00,
2013-05-27 10:52:00,61.0,45.0,29.81,ESE,119,0.0,4.0,56,0.00,,,0.01,,2013-05-27 16:52:00,
2013-05-27 11:02:00,63.0,44.0,29.81,WNW,289,4.0,9.0,50,0.00,,,0.01,,2013-05-27 17:02:00,
2013-05-27 11:11:00,63.0,44.0,29.81,WNW,289,4.0,9.0,50,0.00,,,0.01,,2013-05-27 17:11:00,
2013-05-27 11:22:00,58.0,36.0,29.83,West,267,25.0,34.0,44,0.00,,,0.01,,2013-05-27 17:22:00,
2013-05-27 11:31:00,56.0,38.0,29.83,West,262,25.0,36.0,51,0.00,,,0.01,,2013-05-27 17:31:00,
2013-05-27 11:42:00,56.0,38.0,29.83,West,262,25.0,36.0,51,0.00,,,0.01,,2013-05-27 17:42:00,
2013-05-27 11:52:00,56.0,39.0,29.85,West,271,20.0,28.0,52,0.00,,,0.01,,2013-05-27 17:52:00,
2013-05-27 12:02:00,56.0,41.0,29.84,WSW,250,25.0,39.0,58,0.00,,,0.01,,2013-05-27 18:02:00,
2013-05-27 12:11:00,56.0,41.0,29.84,WSW,250,25.0,39.0,58,0.00,,,0.01,,2013-05-27 18:11:00,
2013-05-27 12:21:00,55.0,41.0,29.84,West,273,7.0,12.0,59,0.00,,,0.01,,2013-05-27 18:21:00,
2013-05-27 12:32:00,55.0,42.0,29.84,NNW,334,8.0,13.0,61,0.00,,,0.01,,2013-05-27 18:32:00,
2013-05-27 12:41:00,55.0,42.0,29.84,NNW,334,8.0,13.0,61,0.00,,,0.01,,2013-05-27 18:41:00,
2013-05-27 12:52:00,54.0,42.0,29.83,NW,311,7.0,10.0,63,0.00,,,0.01,,2013-05-27 18:52:00,
2013-05-27 13:01:00,55.0,43.0,29.83,NW,319,5.0,6.0,64,0.00,,,0.01,,2013-05-27 19:01:00,
2013-05-27 13:11:00,55.0,43.0,29.83,NW,319,5.0,6.0,64,0.00,,,0.01,,2013-05-27 19:11:00,
2013-05-27 13:21:00,58.0,42.0,29.83,NNW,327,8.0,9.0,55,0.00,,,0.01,,2013-05-27 19:21:00,
2013-05-27 13:31:00,59.0,40.0,29.83,North,355,10.0,18.0,49,0.00,,,0.01,,2013-05-27 19:31:00,
2013-05-27 13:41:00,59.0,40.0,29.83,North,355,10.0,18.0,49,0.00,,,0.01,,2013-05-27 19:41:00,
2013-05-27 13:52:00,60.0,40.0,29.83,NW,312,11.0,15.0,47,0.00,,,0.01,,2013-05-27 19:52:00,
2013-05-27 14:01:00,61.0,38.0,29.83,NW,314,7.0,14.0,42,0.00,,,0.01,,2013-05-27 20:01:00,
2013-05-27 14:11:00,61.0,38.0,29.83,NW,314,7.0,14.0,42,0.00,,,0.01,,2013-05-27 20:11:00,
2013-05-27 14:22:00,62.0,39.0,29.83,WNW,290,8.0,13.0,43,0.00,,,0.01,,2013-05-27 20:22:00,
2013-05-27 14:32:00,63.0,37.0,29.82,WNW,285,10.0,14.0,38,0.00,,,0.01,,2013-05-27 20:32:00,
2013-05-27 14:41:00,63.0,35.0,29.82,WNW,286,4.0,12.0,35,0.00,,,0.01,,2013-05-27 20:41:00,
2013-05-27 14:52:00,63.0,35.0,29.82,WNW,286,4.0,12.0,35,0.00,,,0.01,,2013-05-27 20:52:00,
2013-05-27 15:01:00,64.0,36.0,29.81,West,269,8.0,12.0,35,0.00,,,0.01,,2013-05-27 21:01:00,
2013-05-27 15:11:00,64.0,34.0,29.80,West,279,13.0,22.0,33,0.00,,,0.01,,2013-05-27 21:11:00,
2013-05-27 15:21:00,64.0,34.0,29.80,West,279,13.0,22.0,33,0.00,,,0.01,,2013-05-27 21:21:00,
2013-05-27 15:32:00,65.0,34.0,29.80,West,277,11.0,15.0,31,0.00,,,0.01,,2013-05-27 21:32:00,
2013-05-27 15:42:00,65.0,35.0,29.80,NW,310,8.0,20.0,33,0.00,,,0.01,,2013-05-27 21:42:00,
2013-05-27 15:53:00,65.0,35.0,29.80,NW,310,8.0,20.0,33,0.00,,,0.01,,2013-05-27 21:53:00,
2013-05-27 16:02:00,64.0,34.0,29.80,NNW,329,6.0,13.0,33,0.00,,,0.01,,2013-05-27 22:02:00,
2013-05-27 16:12:00,64.0,34.0,29.80,NNW,329,6.0,13.0,33,0.00,,,0.01,,2013-05-27 22:12:00,
2013-05-27 16:22:00,66.0,37.0,29.79,NNW,348,7.0,16.0,34,0.00,,,0.01,,2013-05-27 22:22:00,
2013-05-27 16:32:00,66.0,34.0,29.79,NNW,328,8.0,10.0,31,0.00,,,0.01,,2013-05-27 22:32:00,
2013-05-27 16:42:00,66.0,34.0,29.79,NNW,328,8.0,10.0,31,0.00,,,0.01,,2013-05-27 22:42:00,
2013-05-27 16:52:00,66.0,34.0,29.78,WNW,301,8.0,16.0,30,0.00,,,0.01,,2013-05-27 22:52:00,
2013-05-27 17:02:00,66.0,34.0,29.78,NW,319,8.0,25.0,30,0.00,,,0.01,,2013-05-27 23:02:00,
2013-05-27 17:12:00,66.0,34.0,29.78,NW,319,8.0,25.0,30,0.00,,,0.01,,2013-05-27 23:12:00,
2013-05-27 17:22:00,66.0,38.0,29.78,NNW,333,12.0,27.0,35,0.00,,,0.01,,2013-05-27 23:22:00,
2013-05-27 17:32:00,66.0,38.0,29.78,NW,311,14.0,20.0,36,0.00,,,0.01,,2013-05-27 23:32:00,
2013-05-27 17:42:00,66.0,38.0,29.78,NW,311,14.0,20.0,36,0.00,,,0.01,,2013-05-27 23:42:00,
2013-05-27 17:52:00,65.0,37.0,29.79,NW,313,15.0,22.0,35,0.00,,,0.01,,2013-05-27 23:52:00,
2013-05-27 18:01:00,65.0,37.0,29.79,NNW,335,12.0,23.0,36,0.00,,,0.01,,2013-05-28 00:01:00,
2013-05-27 18:11:00,65.0,37.0,29.79,NNW,335,12.0,23.0,36,0.00,,,0.01,,2013-05-28 00:11:00,
2013-05-27 18:21:00,65.0,39.0,29.79,NNW,335,12.0,19.0,38,0.00,,,0.01,,2013-05-28 00:21:00,
2013-05-27 18:31:00,64.0,38.0,29.78,NNW,340,14.0,21.0,38,0.00,,,0.01,,2013-05-28 00:31:00,
2013-05-27 18:41:00,64.0,38.0,29.78,NNW,340,14.0,21.0,38,0.00,,,0.01,,2013-05-28 00:41:00,
2013-05-27 18:52:00,64.0,38.0,29.78,NW,326,13.0,19.0,38,0.00,,,0.01,,2013-05-28 00:52:00,
2013-05-27 19:01:00,64.0,38.0,29.78,NNW,327,12.0,16.0,38,0.00,,,0.01,,2013-05-28 01:01:00,
2013-05-27 19:11:00,64.0,38.0,29.78,NNW,327,12.0,16.0,38,0.00,,,0.01,,2013-05-28 01:11:00,
2013-05-27 19:21:00,64.0,39.0,29.78,NW,326,11.0,15.0,39,0.00,,,0.01,,2013-05-28 01:21:00,
2013-05-27 19:31:00,64.0,38.0,29.78,NW,309,12.0,18.0,38,0.00,,,0.01,,2013-05-28 01:31:00,
2013-05-27 19:41:00,64.0,38.0,29.78,NW,309,12.0,18.0,38,0.00,,,0.01,,2013-05-28 01:41:00,
2013-05-27 19:52:00,63.0,38.0,29.78,NNW,329,12.0,19.0,40,0.00,,,0.01,,2013-05-28 01:52:00,
2013-05-27 20:02:00,63.0,39.0,29.78,NNW,342,8.0,14.0,41,0.00,,,0.01,,2013-05-28 02:02:00,
2013-05-27 20:11:00,63.0,39.0,29.78,NNW,342,8.0,14.0,41,0.00,,,0.01,,2013-05-28 02:11:00,
2013-05-27 20:21:00,62.0,40.0,29.78,NNW,330,9.0,11.0,44,0.00,,,0.01,,2013-05-28 02:21:00,
2013-05-27 20:32:00,61.0,41.0,29.78,NW,322,7.0,9.0,47,0.00,,,0.01,,2013-05-28 02:32:00,
2013-05-27 20:41:00,61.0,41.0,29.78,NW,322,7.0,9.0,47,0.00,,,0.01,,2013-05-28 02:41:00,
2013-05-27 20:52:00,60.0,39.0,29.78,NW,317,8.0,10.0,46,0.00,,,0.01,,2013-05-28 02:52:00,
2013-05-27 21:01:00,60.0,40.0,29.78,NW,304,8.0,10.0,47,0.00,,,0.01,,2013-05-28 03:01:00,
2013-05-27 21:11:00,60.0,40.0,29.78,NW,304,8.0,10.0,47,0.00,,,0.01,,2013-05-28 03:11:00,
2013-05-27 21:21:00,60.0,40.0,29.78,NW,313,7.0,10.0,47,0.00,,,0.01,,2013-05-28 03:21:00,
2013-05-27 21:33:00,57.0,40.0,29.79,NNW,331,6.0,7.0,53,0.00,,,0.01,,2013-05-28 03:33:00,
2013-05-27 21:43:00,57.0,40.0,29.79,NNW,331,6.0,7.0,53,0.00,,,0.01,,2013-05-28 03:43:00,
2013-05-27 21:53:00,56.0,40.0,29.79,NNW,333,8.0,9.0,54,0.00,,,0.01,,2013-05-28 03:53:00,
2013-05-27 22:02:00,53.0,39.0,29.79,NNW,340,6.0,8.0,59,0.00,,,0.01,,2013-05-28 04:02:00,
2013-05-27 22:12:00,53.0,39.0,29.79,NNW,340,6.0,8.0,59,0.00,,,0.01,,2013-05-28 04:12:00,
2013-05-27 22:22:00,56.0,40.0,29.79,NW,305,9.0,13.0,55,0.00,,,0.01,,2013-05-28 04:22:00,
2013-05-27 22:33:00,56.0,40.0,29.79,WNW,282,13.0,14.0,54,0.00,,,0.01,,2013-05-28 04:33:00,
2013-05-27 22:42:00,56.0,40.0,29.79,WNW,282,13.0,14.0,54,0.00,,,0.01,,2013-05-28 04:42:00,
2013-05-27 22:52:00,57.0,40.0,29.80,WNW,294,10.0,13.0,52,0.00,,,0.01,,2013-05-28 04:52:00,
2013-05-27 23:02:00,51.0,40.0,29.81,SE,130,2.0,9.0,67,0.00,,,0.01,,2013-05-28 05:02:00,
2013-05-27 23:12:00,51.0,40.0,29.81,SE,130,2.0,9.0,67,0.00,,,0.01,,2013-05-28 05:12:00,
2013-05-27 23:22:00,52.0,41.0,29.81,SSE,147,0.0,8.0,65,0.00,,,0.01,,2013-05-28 05:22:00,
2013-05-27 23:32:00,52.0,40.0,29.80,SSE,147,2.0,3.0,63,0.00,,,0.01,,2013-05-28 05:32:00,
2013-05-27 23:42:00,52.0,40.0,29.80,SSE,147,2.0,3.0,63,0.00,,,0.01,,2013-05-28 05:42:00,
2013-05-27 23:52:00,53.0,40.0,29.80,SW,214,4.0,5.0,62,0.00,,,0.01,,2013-05-28 05:52:00,